createdAt,value
2019-03-24T00:00:37.253Z,4.83
2019-03-24T00:03:06.400Z,5.10
2019-03-24T00:05:35.600Z,4.93
2019-03-24T00:08:04.909Z,5.10
2019-03-24T00:10:33.922Z,5.20
2019-03-24T00:13:03.111Z,5.50
2019-03-24T00:15:32.132Z,6.03
2019-03-24T00:18:01.200Z,4.80
2019-03-24T00:20:30.243Z,5.57
2019-03-24T00:22:59.662Z,4.97
2019-03-24T00:25:28.732Z,5.00
2019-03-24T00:27:57.812Z,4.60
2019-03-24T00:30:26.902Z,5.30
2019-03-24T00:32:56.170Z,4.43
2019-03-24T00:35:25.638Z,4.50
2019-03-24T00:37:54.801Z,4.50
2019-03-24T00:40:23.951Z,4.73
2019-03-24T00:42:53.020Z,5.30
2019-03-24T00:45:23.008Z,4.57
2019-03-24T00:47:52.110Z,4.40
2019-03-24T00:50:21.875Z,4.20
2019-03-24T00:52:50.975Z,4.80
2019-03-24T00:55:20.403Z,4.83
2019-03-24T00:57:49.482Z,4.13
2019-03-24T01:00:20.823Z,4.70
2019-03-24T01:02:49.876Z,4.40
2019-03-24T01:05:18.950Z,4.60
2019-03-24T01:07:48.231Z,4.30
2019-03-24T01:10:17.374Z,4.97
2019-03-24T01:12:46.433Z,5.23
2019-03-24T01:15:15.890Z,5.53
2019-03-24T01:17:44.925Z,4.40
2019-03-24T01:20:14.302Z,4.23
2019-03-24T01:22:43.302Z,4.63
2019-03-24T01:25:12.338Z,4.83
2019-03-24T01:27:41.843Z,5.10
2019-03-24T01:30:11.714Z,4.07
2019-03-24T01:32:40.769Z,4.67
2019-03-24T01:35:10.100Z,4.33
2019-03-24T01:37:39.151Z,4.50
2019-03-24T01:40:08.307Z,4.30
2019-03-24T01:42:37.417Z,4.83
2019-03-24T01:45:06.821Z,4.03
2019-03-24T01:47:35.845Z,4.43
2019-03-24T01:50:05.460Z,4.40
2019-03-24T01:52:34.489Z,4.70
2019-03-24T01:55:03.584Z,4.43
2019-03-24T01:57:32.818Z,4.17
2019-03-24T02:00:01.910Z,3.70
2019-03-24T02:02:30.982Z,4.57
2019-03-24T02:05:00.033Z,4.00
2019-03-24T02:07:29.073Z,5.00
2019-03-24T02:09:58.123Z,4.17
2019-03-24T02:12:27.740Z,4.50
2019-03-24T02:14:56.764Z,4.20
2019-03-24T02:17:26.387Z,4.70
2019-03-24T02:19:55.394Z,4.60
2019-03-24T02:22:24.398Z,4.60
2019-03-24T02:24:53.583Z,4.47
2019-03-24T02:27:22.650Z,4.80
2019-03-24T02:29:51.817Z,4.70
2019-03-24T02:32:21.029Z,4.03
2019-03-24T02:34:50.564Z,4.80
2019-03-24T02:37:19.895Z,5.10
2019-03-24T02:39:49.479Z,4.40
2019-03-24T02:42:18.626Z,4.37
2019-03-24T02:44:48.092Z,4.73
2019-03-24T02:47:17.194Z,4.40
2019-03-24T02:49:46.265Z,5.30
2019-03-24T02:52:15.546Z,5.03
2019-03-24T02:54:44.942Z,4.43
2019-03-24T02:57:14.062Z,4.70
2019-03-24T02:59:43.089Z,5.07
2019-03-24T03:02:12.362Z,4.70
2019-03-24T03:04:41.507Z,4.77
2019-03-24T03:07:10.624Z,4.70
2019-03-24T03:09:39.821Z,5.70
2019-03-24T03:12:08.920Z,5.23
2019-03-24T03:14:38.161Z,4.70
2019-03-24T03:17:07.326Z,4.70
2019-03-24T03:19:36.337Z,4.40
2019-03-24T03:22:05.413Z,4.87
2019-03-24T03:24:35.256Z,4.87
2019-03-24T03:27:04.439Z,4.83
2019-03-24T03:29:33.501Z,4.60
2019-03-24T03:32:02.576Z,5.03
2019-03-24T03:34:31.632Z,4.57
2019-03-24T03:37:00.708Z,5.20
2019-03-24T03:39:30.052Z,4.93
2019-03-24T03:41:59.106Z,4.77
2019-03-24T03:44:28.348Z,4.23
2019-03-24T03:46:58.498Z,4.40
2019-03-24T03:49:27.559Z,4.43
2019-03-24T03:51:56.572Z,4.80
2019-03-24T03:54:25.868Z,4.23
2019-03-24T03:56:54.979Z,4.47
2019-03-24T03:59:24.140Z,4.30
2019-03-24T04:01:53.163Z,4.67
2019-03-24T04:04:22.636Z,4.40
2019-03-24T04:06:51.703Z,5.50
2019-03-24T04:09:21.079Z,4.93
2019-03-24T04:11:50.170Z,4.17
2019-03-24T04:14:19.321Z,5.43
2019-03-24T04:16:48.427Z,5.63
2019-03-24T04:19:19.281Z,4.43
2019-03-24T04:21:48.637Z,4.60
2019-03-24T04:24:35.151Z,4.63
2019-03-24T04:27:04.609Z,5.00
2019-03-24T04:29:33.693Z,4.77
2019-03-24T04:32:03.182Z,4.60
2019-03-24T04:34:32.231Z,5.07
2019-03-24T04:37:01.229Z,4.70
2019-03-24T04:39:30.792Z,5.00
2019-03-24T04:41:59.981Z,5.07
2019-03-24T04:44:29.086Z,4.80
2019-03-24T04:46:58.086Z,5.03
2019-03-24T04:49:27.149Z,4.93
2019-03-24T04:51:56.194Z,5.37
2019-03-24T04:54:25.754Z,6.10
2019-03-24T04:56:54.858Z,5.30
2019-03-24T04:59:24.065Z,5.70
2019-03-24T05:01:53.090Z,5.80
2019-03-24T05:04:22.294Z,5.73
2019-03-24T05:06:51.354Z,5.30
2019-03-24T05:09:20.355Z,5.20
2019-03-24T05:11:49.402Z,5.43
2019-03-24T05:14:18.437Z,5.70
2019-03-24T05:16:47.466Z,5.70
2019-03-24T05:19:17.251Z,5.70
2019-03-24T05:21:46.628Z,5.57
2019-03-24T05:24:15.801Z,5.43
2019-03-24T05:26:44.904Z,6.93
2019-03-24T05:29:13.930Z,6.13
2019-03-24T05:31:43.119Z,6.83
2019-03-24T05:34:12.177Z,7.70
2019-03-24T05:36:41.218Z,7.30
2019-03-24T05:39:10.394Z,7.80
2019-03-24T05:41:39.476Z,8.20
2019-03-24T05:44:08.540Z,7.83
2019-03-24T05:46:37.634Z,7.90
2019-03-24T05:49:06.676Z,8.30
2019-03-24T05:51:35.756Z,8.80
2019-03-24T05:54:04.850Z,8.23
2019-03-24T05:56:33.906Z,7.67
2019-03-24T05:59:03.003Z,8.80
2019-03-24T06:01:32.074Z,9.17
2019-03-24T06:04:01.155Z,9.53
2019-03-24T06:06:30.761Z,9.13
2019-03-24T06:09:00.000Z,9.13
2019-03-24T06:11:29.122Z,9.50
2019-03-24T06:13:58.132Z,10.10
2019-03-24T06:16:27.184Z,9.83
2019-03-24T06:18:57.004Z,10.40
2019-03-24T06:21:26.233Z,9.70
2019-03-24T06:23:55.412Z,10.00
2019-03-24T06:26:24.670Z,11.37
2019-03-24T06:28:53.766Z,10.57
2019-03-24T06:31:22.813Z,10.47
2019-03-24T06:33:53.009Z,9.93
2019-03-24T06:36:22.282Z,10.17
2019-03-24T06:38:51.343Z,9.93
2019-03-24T06:41:20.573Z,9.30
2019-03-24T06:43:49.718Z,9.73
2019-03-24T06:46:19.003Z,10.37
2019-03-24T06:48:48.193Z,9.20
2019-03-24T06:51:17.831Z,10.00
2019-03-24T06:53:46.979Z,10.20
2019-03-24T06:56:16.010Z,9.67
2019-03-24T06:58:45.214Z,9.73
2019-03-24T07:01:14.243Z,9.00
2019-03-24T07:03:43.330Z,8.77
2019-03-24T07:06:12.395Z,10.93
2019-03-24T07:08:41.419Z,9.60
2019-03-24T07:11:13.686Z,10.27
2019-03-24T07:13:41.452Z,10.10
2019-03-24T07:16:10.591Z,9.67
2019-03-24T07:18:39.724Z,10.23
2019-03-24T07:21:08.823Z,9.57
2019-03-24T07:23:37.919Z,10.17
2019-03-24T07:26:07.100Z,9.27
2019-03-24T07:28:36.218Z,10.17
2019-03-24T07:31:05.419Z,8.93
2019-03-24T07:33:34.739Z,9.13
2019-03-24T07:36:04.423Z,9.37
2019-03-24T07:38:33.497Z,9.43
2019-03-24T07:41:02.659Z,10.53
2019-03-24T07:43:31.826Z,9.83
2019-03-24T07:46:01.411Z,9.60
2019-03-24T07:48:30.598Z,9.73
2019-03-24T07:50:59.718Z,10.13
2019-03-24T07:53:28.750Z,9.53
2019-03-24T07:55:57.952Z,8.60
2019-03-24T07:58:27.029Z,9.27
2019-03-24T08:00:56.046Z,9.30
2019-03-24T08:03:25.113Z,10.43
2019-03-24T08:05:56.520Z,11.07
2019-03-24T08:08:27.158Z,10.37
2019-03-24T08:10:56.183Z,10.37
2019-03-24T08:13:25.302Z,8.37
2019-03-24T08:15:54.878Z,8.30
2019-03-24T08:18:29.953Z,8.53
2019-03-24T08:20:54.879Z,8.80
2019-03-24T08:23:23.936Z,9.23
2019-03-24T08:25:53.706Z,8.97
2019-03-24T08:28:23.234Z,8.87
2019-03-24T08:30:52.410Z,9.87
2019-03-24T08:33:22.051Z,9.63
2019-03-24T08:35:51.108Z,9.63
2019-03-24T08:38:22.604Z,9.37
2019-03-24T08:40:51.680Z,9.17
2019-03-24T08:43:22.315Z,9.47
2019-03-24T08:45:51.477Z,8.53
2019-03-24T08:48:20.708Z,9.20
2019-03-24T08:50:49.795Z,8.67
2019-03-24T08:53:18.857Z,9.00
2019-03-24T08:55:48.039Z,8.53
2019-03-24T08:58:17.423Z,9.07
2019-03-24T09:00:46.512Z,8.97
2019-03-24T09:03:15.867Z,8.37
2019-03-24T09:05:45.280Z,8.10
2019-03-24T09:08:14.478Z,8.90
2019-03-24T09:10:43.619Z,8.57
2019-03-24T09:13:12.875Z,8.47
2019-03-24T09:15:43.226Z,8.60
2019-03-24T09:18:12.756Z,7.47
2019-03-24T09:20:42.141Z,7.40
2019-03-24T09:23:11.372Z,8.57
2019-03-24T09:25:40.469Z,8.33
2019-03-24T09:28:09.733Z,8.10
2019-03-24T09:30:38.950Z,8.67
2019-03-24T09:33:08.011Z,7.93
2019-03-24T09:35:37.101Z,9.13
2019-03-24T09:38:06.435Z,8.70
2019-03-24T09:40:36.115Z,8.23
2019-03-24T09:43:05.586Z,9.17
2019-03-24T09:45:35.084Z,8.20
2019-03-24T09:48:05.034Z,8.33
2019-03-24T09:50:34.637Z,8.70
2019-03-24T09:53:04.218Z,9.43
2019-03-24T09:55:33.323Z,6.70
2019-03-24T09:58:02.552Z,7.03
2019-03-24T10:00:31.855Z,7.07
2019-03-24T10:03:01.249Z,5.83
2019-03-24T10:05:30.391Z,6.83
2019-03-24T10:07:59.504Z,6.30
2019-03-24T10:10:28.974Z,5.57
2019-03-24T10:12:58.354Z,6.17
2019-03-24T10:15:27.786Z,5.10
2019-03-24T10:17:59.418Z,5.20
2019-03-24T10:20:28.634Z,5.47
2019-03-24T10:22:57.880Z,5.77
2019-03-24T10:25:27.034Z,4.80
2019-03-24T10:27:56.337Z,5.07
2019-03-24T10:30:25.571Z,5.37
2019-03-24T10:32:54.729Z,4.70
2019-03-24T10:35:23.870Z,5.10
2019-03-24T10:37:53.742Z,4.53
2019-03-24T10:40:28.511Z,3.60
2019-03-24T10:42:53.935Z,5.63
2019-03-24T10:45:23.273Z,4.20
2019-03-24T10:47:52.514Z,4.23
2019-03-24T10:50:21.576Z,4.13
2019-03-24T10:52:50.623Z,3.53
2019-03-24T10:55:20.223Z,3.63
2019-03-24T10:57:49.319Z,3.27
2019-03-24T11:00:28.732Z,3.53
2019-03-24T11:02:58.067Z,3.47
2019-03-24T11:05:27.097Z,3.40
2019-03-24T11:07:56.186Z,3.90
2019-03-24T11:10:25.269Z,3.57
2019-03-24T11:12:54.465Z,3.87
2019-03-24T11:15:27.167Z,3.70
2019-03-24T11:17:56.414Z,3.60
2019-03-24T11:20:25.625Z,4.37
2019-03-24T11:22:55.083Z,3.87
2019-03-24T11:25:24.295Z,3.27
2019-03-24T11:27:54.111Z,3.60
2019-03-24T11:30:23.183Z,3.97
2019-03-24T11:32:52.283Z,3.90
2019-03-24T11:35:21.735Z,4.10
2019-03-24T11:37:51.343Z,3.73
2019-03-24T11:40:20.435Z,3.97
2019-03-24T11:42:49.894Z,3.80
2019-03-24T11:45:19.143Z,4.00
2019-03-24T11:47:48.417Z,3.50
2019-03-24T11:50:17.951Z,3.70
2019-03-24T11:52:47.039Z,3.27
2019-03-24T11:55:16.250Z,2.80
2019-03-24T11:57:45.569Z,4.33
2019-03-24T12:00:15.093Z,3.30
2019-03-24T12:02:44.795Z,4.00
2019-03-24T12:05:13.882Z,2.70
2019-03-24T12:07:43.188Z,2.27
2019-03-24T12:10:12.627Z,2.23
2019-03-24T12:12:42.327Z,2.90
2019-03-24T12:15:11.490Z,2.77
2019-03-24T12:17:41.445Z,1.90
2019-03-24T12:20:10.918Z,2.33
2019-03-24T12:22:40.159Z,2.80
2019-03-24T12:25:09.274Z,2.10
2019-03-24T12:27:38.423Z,2.20
2019-03-24T12:30:08.369Z,2.33
2019-03-24T12:32:37.807Z,2.20
2019-03-24T12:35:07.374Z,2.70
2019-03-24T12:37:36.694Z,2.67
2019-03-24T12:40:06.144Z,2.40
2019-03-24T12:42:35.627Z,2.30
2019-03-24T12:45:06.404Z,2.93
2019-03-24T12:47:35.732Z,2.73
2019-03-24T12:50:09.316Z,2.43
2019-03-24T12:52:36.507Z,2.90
2019-03-24T12:55:05.705Z,2.57
2019-03-24T12:57:35.211Z,2.47
2019-03-24T13:00:05.772Z,4.53
2019-03-24T13:02:34.912Z,4.20
2019-03-24T13:05:04.273Z,3.10
2019-03-24T13:07:33.363Z,3.50
2019-03-24T13:10:02.675Z,3.30
2019-03-24T13:12:32.006Z,4.20
2019-03-24T13:15:01.214Z,3.87
2019-03-24T13:17:31.135Z,3.77
2019-03-24T13:20:00.457Z,3.73
2019-03-24T13:22:30.258Z,4.40
2019-03-24T13:24:59.516Z,4.60
2019-03-24T13:27:28.799Z,4.13
2019-03-24T13:29:57.972Z,4.33
2019-03-24T13:32:27.607Z,3.80
2019-03-24T13:34:56.803Z,4.00
2019-03-24T13:37:25.957Z,4.30
2019-03-24T13:39:55.227Z,4.20
2019-03-24T13:42:24.526Z,5.10
2019-03-24T13:44:53.756Z,4.20
2019-03-24T13:47:22.900Z,3.70
2019-03-24T13:49:51.999Z,4.27
2019-03-24T13:52:21.134Z,4.37
2019-03-24T13:54:50.273Z,4.30
2019-03-24T13:57:19.339Z,3.83
2019-03-24T13:59:48.832Z,4.57
2019-03-24T14:02:17.870Z,4.07
2019-03-24T14:04:47.593Z,4.20
2019-03-24T14:07:17.558Z,4.60
2019-03-24T14:09:46.766Z,4.17
2019-03-24T14:12:17.921Z,4.00
2019-03-24T14:14:46.811Z,4.43
2019-03-24T14:17:16.060Z,4.00
2019-03-24T14:19:48.326Z,3.93
2019-03-24T14:22:23.655Z,3.13
2019-03-24T14:24:52.854Z,3.67
2019-03-24T14:27:22.015Z,3.40
2019-03-24T14:29:51.129Z,3.13
2019-03-24T14:32:20.414Z,3.43
2019-03-24T14:34:49.770Z,3.60
2019-03-24T14:37:18.846Z,3.27
2019-03-24T14:39:48.478Z,3.63
2019-03-24T14:42:17.586Z,3.50
2019-03-24T14:44:46.963Z,2.97
2019-03-24T14:47:16.173Z,2.97
2019-03-24T14:49:45.428Z,3.77
2019-03-24T14:52:14.627Z,3.50
2019-03-24T14:54:43.779Z,3.47
2019-03-24T14:57:12.859Z,3.33
2019-03-24T14:59:42.616Z,3.00
2019-03-24T15:02:11.973Z,3.50
2019-03-24T15:04:41.099Z,3.43
2019-03-24T15:07:10.466Z,3.33
2019-03-24T15:09:39.518Z,2.67
2019-03-24T15:12:08.744Z,3.17
2019-03-24T15:14:40.608Z,2.53
2019-03-24T15:17:09.875Z,2.20
2019-03-24T15:19:39.035Z,3.10
2019-03-24T15:22:08.204Z,2.53
2019-03-24T15:24:37.943Z,2.00
2019-03-24T15:27:07.245Z,2.33
2019-03-24T15:29:36.432Z,2.77
2019-03-24T15:32:05.831Z,2.63
2019-03-24T15:34:35.038Z,2.90
2019-03-24T15:37:04.159Z,2.70
2019-03-24T15:39:33.341Z,2.70
2019-03-24T15:42:02.448Z,4.37
2019-03-24T15:44:31.724Z,3.40
2019-03-24T15:47:00.938Z,2.33
2019-03-24T15:49:30.498Z,2.83
2019-03-24T15:51:59.654Z,2.93
2019-03-24T15:54:29.271Z,2.47
2019-03-24T15:56:58.494Z,2.80
2019-03-24T15:59:27.939Z,4.40
2019-03-24T16:01:57.016Z,2.37
2019-03-24T16:04:26.708Z,2.63
2019-03-24T16:06:55.891Z,2.73
2019-03-24T16:09:25.281Z,3.10
2019-03-24T16:11:55.132Z,2.60
2019-03-24T16:14:24.457Z,2.50
2019-03-24T16:16:53.683Z,3.17
2019-03-24T16:19:23.255Z,2.60
2019-03-24T16:21:52.361Z,2.70
2019-03-24T16:24:21.645Z,2.40
2019-03-24T16:26:50.958Z,5.17
2019-03-24T16:29:20.079Z,2.87
2019-03-24T16:31:49.465Z,2.80
2019-03-24T16:34:18.686Z,3.03
2019-03-24T16:36:48.188Z,2.50
2019-03-24T16:39:17.559Z,2.93
2019-03-24T16:41:46.833Z,3.70
2019-03-24T16:44:16.238Z,3.73
2019-03-24T16:46:45.791Z,3.17
2019-03-24T16:49:14.877Z,3.30
2019-03-24T16:51:43.988Z,3.10
2019-03-24T16:54:16.273Z,2.43
2019-03-24T16:56:45.746Z,2.40
2019-03-24T16:59:14.915Z,2.63
2019-03-24T17:01:44.691Z,4.30
2019-03-24T17:04:14.292Z,2.40
2019-03-24T17:06:43.406Z,2.77
2019-03-24T17:09:12.585Z,2.27
2019-03-24T17:11:41.861Z,2.60
2019-03-24T17:14:11.223Z,2.50
2019-03-24T17:16:40.351Z,2.60
2019-03-24T17:19:09.667Z,2.27
2019-03-24T17:21:49.433Z,2.20
2019-03-24T17:24:10.217Z,8.57
2019-03-24T17:26:39.523Z,3.43
2019-03-24T17:29:08.610Z,2.07
2019-03-24T17:31:37.742Z,2.77
2019-03-24T17:34:06.991Z,2.83
2019-03-24T17:36:36.110Z,2.97
2019-03-24T17:39:07.101Z,3.00
2019-03-24T17:41:36.838Z,3.10
2019-03-24T17:44:06.133Z,2.47
2019-03-24T17:46:35.573Z,2.70
2019-03-24T17:49:05.206Z,3.80
2019-03-24T17:51:34.335Z,2.67
2019-03-24T17:54:03.441Z,2.70
2019-03-24T17:56:32.794Z,2.60
2019-03-24T17:59:03.375Z,2.80
2019-03-24T18:01:32.561Z,2.30
2019-03-24T18:04:02.239Z,2.73
2019-03-24T18:06:31.639Z,2.43
2019-03-24T18:09:01.112Z,2.33
2019-03-24T18:11:30.868Z,2.60
2019-03-24T18:14:01.392Z,2.53
2019-03-24T18:16:30.530Z,2.87
2019-03-24T18:18:59.911Z,3.47
2019-03-24T18:21:29.056Z,2.97
2019-03-24T18:23:58.302Z,3.27
2019-03-24T18:26:27.546Z,2.90
2019-03-24T18:28:57.523Z,2.47
2019-03-24T18:31:26.616Z,2.30
2019-03-24T18:33:56.922Z,3.13
2019-03-24T18:36:26.544Z,2.13
2019-03-24T18:38:56.125Z,2.57
2019-03-24T18:41:25.309Z,2.47
2019-03-24T18:43:54.751Z,2.70
2019-03-24T18:46:23.950Z,2.40
2019-03-24T18:48:53.233Z,2.40
2019-03-24T18:51:22.330Z,3.00
2019-03-24T18:53:51.693Z,2.30
2019-03-24T18:56:20.870Z,2.67
2019-03-24T18:58:50.195Z,2.40
2019-03-24T19:01:19.501Z,3.37
2019-03-24T19:03:49.000Z,2.50
2019-03-24T19:06:18.381Z,2.87
2019-03-24T19:08:47.547Z,2.53
2019-03-24T19:11:16.730Z,2.53
2019-03-24T19:13:45.964Z,2.97
2019-03-24T19:16:15.642Z,2.97
2019-03-24T19:18:45.011Z,1.93
2019-03-24T19:21:14.409Z,2.33
2019-03-24T19:23:43.906Z,2.33
2019-03-24T19:26:13.194Z,3.20
2019-03-24T19:28:42.596Z,2.40
2019-03-24T19:31:11.808Z,2.87
2019-03-24T19:33:41.980Z,2.37
2019-03-24T19:36:11.289Z,2.37
2019-03-24T19:38:41.541Z,3.63
2019-03-24T19:41:10.868Z,3.07
2019-03-24T19:43:40.202Z,2.87
2019-03-24T19:46:09.753Z,2.80
2019-03-24T19:48:39.060Z,2.53
2019-03-24T19:51:08.344Z,3.23
2019-03-24T19:53:37.437Z,2.57
2019-03-24T19:56:06.595Z,2.83
2019-03-24T19:58:35.649Z,3.00
2019-03-24T20:01:11.030Z,2.90
2019-03-24T20:03:40.225Z,4.30
2019-03-24T20:06:28.206Z,2.93
2019-03-24T20:08:57.285Z,3.27
2019-03-24T20:11:26.509Z,3.27
2019-03-24T20:13:55.646Z,3.10
2019-03-24T20:16:24.799Z,3.40
2019-03-24T20:18:54.018Z,3.57
2019-03-24T20:21:23.194Z,3.20
2019-03-24T20:23:52.518Z,3.63
2019-03-24T20:26:21.850Z,3.23
2019-03-24T20:28:51.454Z,3.33
2019-03-24T20:31:20.627Z,3.67
2019-03-24T20:33:49.964Z,3.60
2019-03-24T20:36:19.215Z,3.53
2019-03-24T20:38:52.284Z,4.23
2019-03-24T20:41:24.957Z,4.20
2019-03-24T20:43:58.116Z,4.07
2019-03-24T20:46:28.617Z,6.40
2019-03-24T20:48:59.308Z,4.80
2019-03-24T20:51:30.057Z,4.67
2019-03-24T20:54:00.508Z,4.33
2019-03-24T20:56:30.052Z,4.60
2019-03-24T20:58:59.965Z,3.37
2019-03-24T21:01:29.521Z,4.20
2019-03-24T21:03:58.720Z,4.53
2019-03-24T21:06:27.770Z,3.87
2019-03-24T21:08:57.057Z,3.63
2019-03-24T21:11:26.577Z,4.17
2019-03-24T21:13:58.472Z,3.37
2019-03-24T21:16:28.264Z,3.53
2019-03-24T21:18:58.033Z,4.17
2019-03-24T21:21:28.342Z,4.10
2019-03-24T21:23:57.633Z,4.10
2019-03-24T21:26:27.900Z,4.97
2019-03-24T21:28:58.403Z,3.63
2019-03-24T21:31:28.901Z,4.20
2019-03-24T21:33:59.469Z,4.30
2019-03-24T21:36:29.711Z,3.97
2019-03-24T21:38:59.820Z,4.10
2019-03-24T21:41:29.357Z,3.73
2019-03-24T21:43:59.231Z,3.97
2019-03-24T21:46:29.380Z,4.47
2019-03-24T21:48:59.208Z,4.60
2019-03-24T21:51:28.938Z,4.20
2019-03-24T21:53:59.649Z,4.23
2019-03-24T21:56:29.877Z,4.20
2019-03-24T21:58:59.649Z,4.43
2019-03-24T22:01:29.782Z,4.17
2019-03-24T22:03:59.608Z,5.10
2019-03-24T22:06:29.014Z,4.83
2019-03-24T22:08:58.931Z,5.10
2019-03-24T22:11:28.815Z,4.20
2019-03-24T22:13:58.458Z,4.63
2019-03-24T22:16:28.403Z,4.57
2019-03-24T22:18:58.626Z,4.27
2019-03-24T22:21:28.749Z,4.60
2019-03-24T22:23:58.969Z,5.03
2019-03-24T22:26:29.011Z,5.23
2019-03-24T22:28:59.168Z,4.10
2019-03-24T22:31:29.500Z,3.97
2019-03-24T22:33:58.732Z,4.50
2019-03-24T22:36:28.513Z,4.97
2019-03-24T22:38:58.302Z,4.37
2019-03-24T22:41:28.179Z,4.33
2019-03-24T22:43:58.726Z,4.00
2019-03-24T22:46:28.425Z,4.63
2019-03-24T22:48:57.600Z,4.40
2019-03-24T22:51:27.430Z,4.20
2019-03-24T22:54:03.137Z,3.43
2019-03-24T22:56:28.043Z,4.50
2019-03-24T22:58:58.003Z,4.50
2019-03-24T23:01:27.688Z,3.90
2019-03-24T23:03:58.187Z,4.50
2019-03-24T23:06:28.218Z,3.77
2019-03-24T23:08:57.739Z,3.53
2019-03-24T23:11:26.918Z,3.63
2019-03-24T23:13:56.162Z,3.70
2019-03-24T23:16:25.211Z,4.37
2019-03-24T23:18:54.461Z,3.67
2019-03-24T23:21:23.726Z,3.40
2019-03-24T23:23:59.666Z,3.70
2019-03-24T23:26:29.251Z,3.43
2019-03-24T23:28:58.370Z,3.53
2019-03-24T23:31:27.403Z,3.87
2019-03-24T23:33:56.493Z,4.23
2019-03-24T23:36:25.753Z,3.80
2019-03-24T23:38:57.204Z,3.90
2019-03-24T23:41:25.678Z,3.80
2019-03-24T23:43:55.434Z,4.13
2019-03-24T23:46:24.499Z,4.60
2019-03-24T23:48:54.838Z,3.50
2019-03-24T23:51:23.926Z,4.13
2019-03-24T23:54:11.750Z,3.37
2019-03-24T23:56:41.352Z,3.50
2019-03-24T23:59:10.515Z,3.87
